Aviation Digital Data Service (ADDS)

Output produced by METARs form (2326 UTC 31 July 2015)
found at http://aviationweather.gov/adds/metars/
 
KACY 312320Z 0100/0124 25004KT P6SM SKC 
     FM011400 27011KT P6SM FEW050